.
WxDataArchive / Data Records for 2008-10-06
2008-10-05 October 2008 2008-10-07

Data Records for Monday, 06 October 2008

Time	Temp	Chill	HIndex	Humid	Dewpt	 Wind 	HiWind	WindDir	Rain 	Barom 
-----	----	-----	------	-----	-----	------	------	-------	-----	----- 
00:00	52.3	52.3	52.3	75	44.6	0	2	112	0.00	30.214 
00:05	52.2	52.2	52.2	75	44.5	0	1	112	0.00	30.212 
00:10	51.9	51.9	51.9	77	44.9	0	2	112	0.00	30.211 
00:15	51.6	51.6	51.6	77	44.6	0	3	112	0.00	30.214 
00:20	51.6	51.6	51.6	78	45.0	1	3	112	0.00	30.214 
00:25	51.4	51.4	51.4	78	44.8	0	2	112	0.00	30.213 
00:30	51.4	51.4	51.4	78	44.8	0	2	112	0.00	30.215 
00:35	51.4	51.4	51.4	79	45.1	0	2	112	0.00	30.216 
00:40	51.4	51.4	51.4	79	45.1	0	2	112	0.00	30.216 
00:45	51.4	51.4	51.4	79	45.1	0	2	112	0.00	30.219 
00:50	51.4	51.4	51.4	79	45.1	0	1	112	0.00	30.219 
00:55	51.4	51.4	51.4	79	45.1	0	3	112	0.00	30.216 
01:00	51.4	51.4	51.4	79	45.1	0	1	112	0.00	30.219 
01:05	51.4	51.4	51.4	79	45.1	0	2	112	0.00	30.220 
01:10	51.3	51.3	51.3	80	45.3	0	1	112	0.00	30.220 
01:15	51.3	51.3	51.3	80	45.3	0	1	112	0.00	30.220 
01:20	51.1	51.1	51.1	80	45.1	0	2	112	0.00	30.222 
01:25	51.1	51.1	51.1	81	45.5	0	1	112	0.00	30.225 
01:30	51.3	51.3	51.3	81	45.7	0	1	112	0.00	30.224 
01:35	51.3	51.3	51.3	81	45.7	1	4	112	0.00	30.216 
01:40	51.4	51.4	51.4	80	45.4	1	3	112	0.00	30.215 
01:45	51.4	51.4	51.4	80	45.4	1	3	112	0.00	30.218 
01:50	51.4	51.4	51.4	80	45.4	0	2	112	0.00	30.222 
01:55	51.4	51.4	51.4	80	45.4	0	1	112	0.00	30.220 
02:00	51.3	51.3	51.3	80	45.3	1	2	112	0.00	30.224 
02:05	51.3	51.3	51.3	81	45.7	0	1	112	0.00	30.226 
02:10	51.1	51.1	51.1	81	45.5	0	2	112	0.00	30.223 
02:15	51.1	51.1	51.1	81	45.5	0	2	112	0.00	30.226 
02:20	51.0	51.0	51.0	81	45.4	0	1	112	0.00	30.227 
02:25	50.8	50.8	50.8	81	45.2	0	1	112	0.00	30.225 
02:30	50.7	50.7	50.7	81	45.1	0	3	112	0.00	30.224 
02:35	50.7	50.7	50.7	82	45.4	0	2	112	0.00	30.223 
02:40	50.5	50.5	50.5	82	45.2	0	1	112	0.00	30.219 
02:45	50.4	50.4	50.4	82	45.1	0	3	112	0.00	30.216 
02:50	50.2	50.2	50.2	82	44.9	0	2	112	0.00	30.215 
02:55	50.2	50.2	50.2	83	45.2	0	1	112	0.00	30.215 
03:00	50.2	50.2	50.2	83	45.2	0	1	112	0.00	30.220 
03:05	50.2	50.2	50.2	83	45.2	0	1	112	0.00	30.226 
03:10	50.2	50.2	50.2	83	45.2	0	1	112	0.00	30.227 
03:15	50.4	50.4	50.4	83	45.4	0	2	112	0.00	30.230 
03:20	50.4	50.4	50.4	83	45.4	0	1	112	0.00	30.231 
03:25	50.4	50.4	50.4	83	45.4	0	1	112	0.00	30.232 
03:30	50.4	50.4	50.4	83	45.4	0	1	112	0.00	30.231 
03:35	50.5	50.5	50.5	84	45.8	0	1	112	0.00	30.229 
03:40	50.7	50.7	50.7	83	45.7	0	1	112	0.00	30.230 
03:45	50.8	50.8	50.8	83	45.8	0	2	112	0.00	30.230 
03:50	51.0	51.0	51.0	83	46.0	1	3	112	0.00	30.229 
03:55	51.1	51.1	51.1	83	46.1	1	2	112	0.00	30.230 
04:00	51.3	51.3	51.3	83	46.3	0	3	135	0.00	30.230 
04:05	51.3	51.3	51.3	83	46.3	1	3	135	0.00	30.232 
04:10	51.4	51.4	51.4	83	46.4	0	1	135	0.00	30.233 
04:15	51.4	51.4	51.4	83	46.4	0	2	135	0.00	30.230 
04:20	51.4	51.4	51.4	83	46.4	0	2	135	0.00	30.230 
04:25	51.4	51.4	51.4	84	46.7	0	1	135	0.00	30.231 
04:30	51.4	51.4	51.4	84	46.7	1	3	135	0.00	30.231 
04:35	51.6	51.6	51.6	84	46.9	1	3	135	0.00	30.229 
04:40	51.6	51.6	51.6	84	46.9	1	5	90	0.00	30.227 
04:45	51.7	51.7	51.7	84	47.0	1	3	90	0.00	30.226 
04:50	51.7	51.7	51.7	84	47.0	1	4	90	0.00	30.228 
04:55	51.9	51.9	51.9	84	47.2	1	4	112	0.00	30.228 
05:00	52.0	52.0	52.0	83	47.0	1	3	112	0.00	30.227 
05:05	52.0	52.0	52.0	83	47.0	1	3	90	0.00	30.231 
05:10	52.0	52.0	52.0	83	47.0	0	2	90	0.00	30.234 
05:15	52.2	52.2	52.2	83	47.2	0	2	90	0.00	30.239 
05:20	52.2	52.2	52.2	83	47.2	0	2	90	0.00	30.241 
05:25	52.2	52.2	52.2	83	47.2	0	2	90	0.00	30.241 
05:30	52.3	52.3	52.3	83	47.3	1	2	90	0.00	30.241 
05:35	52.3	52.3	52.3	82	47.0	1	4	90	0.00	30.237 
05:40	52.5	52.5	52.5	82	47.2	1	3	90	0.00	30.239 
05:45	52.5	52.5	52.5	82	47.2	1	4	112	0.00	30.242 
05:50	52.6	52.6	52.6	82	47.3	2	7	112	0.00	30.244 
05:55	52.6	52.6	52.6	81	46.9	2	5	90	0.00	30.244 
06:00	52.6	52.6	52.6	81	46.9	2	6	112	0.00	30.246 
06:05	52.6	52.6	52.6	81	46.9	1	3	135	0.00	30.251 
06:10	52.8	52.8	52.8	81	47.1	2	5	90	0.00	30.252 
06:15	52.8	52.8	52.8	81	47.1	1	4	112	0.00	30.255 
06:20	52.8	52.8	52.8	81	47.1	1	3	90	0.00	30.253 
06:25	52.8	52.8	52.8	80	46.8	1	3	90	0.00	30.252 
06:30	52.8	52.8	52.8	80	46.8	2	4	90	0.00	30.250 
06:35	52.9	52.9	52.9	78	46.2	2	5	90	0.00	30.253 
06:40	53.1	53.1	53.1	78	46.4	2	4	90	0.00	30.254 
06:45	53.2	53.2	53.2	77	46.2	1	3	90	0.00	30.255 
06:50	53.3	53.3	53.3	77	46.3	2	5	90	0.00	30.254 
06:55	53.5	53.5	53.5	76	46.1	2	4	90	0.00	30.259 
07:00	53.5	53.5	53.5	76	46.1	2	5	90	0.00	30.259 
07:05	53.5	53.5	53.5	76	46.1	1	4	112	0.00	30.264 
07:10	53.5	53.5	53.5	76	46.1	2	4	112	0.00	30.263 
07:15	53.5	53.5	53.5	77	46.5	1	5	90	0.00	30.265 
07:20	53.5	53.5	53.5	77	46.5	1	2	90	0.00	30.266 
07:25	53.3	53.3	53.3	78	46.6	1	5	90	0.00	30.266 
07:30	53.3	53.3	53.3	78	46.6	1	6	68	0.00	30.268 
07:35	53.5	53.5	53.5	77	46.5	2	4	90	0.00	30.271 
07:40	53.8	53.8	53.8	76	46.4	2	6	68	0.00	30.274 
07:45	54.2	54.2	54.2	74	46.1	2	6	90	0.00	30.269 
07:50	54.5	54.5	54.5	74	46.4	2	6	90	0.00	30.271 
07:55	54.8	54.8	54.8	73	46.3	3	7	90	0.00	30.274 
08:00	55.0	55.0	55.0	73	46.5	3	5	112	0.00	30.277 
08:05	55.0	55.0	55.0	74	46.9	2	9	90	0.00	30.280 
08:10	55.0	55.0	55.0	74	46.9	2	5	90	0.00	30.280 
08:15	55.1	55.1	55.1	74	47.0	2	5	90	0.00	30.279 
08:20	55.4	55.4	55.4	74	47.3	3	5	90	0.00	30.280 
08:25	55.4	55.4	55.4	74	47.3	3	5	112	0.00	30.282 
08:30	55.4	55.4	55.4	73	46.9	3	9	112	0.00	30.284 
08:35	55.6	55.6	55.6	74	47.4	3	7	90	0.00	30.286 
08:40	55.7	55.7	55.7	74	47.5	3	7	90	0.00	30.287 
08:45	55.7	55.7	55.7	73	47.2	3	10	90	0.00	30.286 
08:50	55.9	55.9	55.9	73	47.4	3	7	90	0.00	30.289 
08:55	56.0	56.0	56.0	72	47.1	2	6	112	0.00	30.292 
09:00	56.3	56.3	56.3	69	46.3	3	9	90	0.00	30.292 
09:05	56.6	56.6	56.6	69	46.5	2	7	90	0.00	30.293 
09:10	56.9	56.9	56.9	68	46.4	3	6	90	0.00	30.295 
09:15	57.2	57.2	57.2	67	46.3	3	6	90	0.00	30.295 
09:20	57.3	57.3	57.3	67	46.4	2	5	90	0.00	30.296 
09:25	57.6	57.6	57.6	67	46.7	2	6	90	0.00	30.296 
09:30	57.8	57.8	57.8	65	46.1	4	7	112	0.00	30.296 
09:35	57.8	57.8	57.8	65	46.1	4	9	90	0.00	30.299 
09:40	57.8	57.8	57.8	65	46.1	3	6	90	0.00	30.300 
09:45	58.0	58.0	58.0	65	46.3	3	7	112	0.00	30.301 
09:50	58.0	58.0	58.0	64	45.9	4	12	90	0.00	30.304 
09:55	58.3	58.3	58.3	63	45.8	4	10	90	0.00	30.307 
10:00	58.4	58.4	58.4	62	45.4	4	10	90	0.00	30.308 
10:05	58.7	58.7	58.7	62	45.7	3	11	90	0.00	30.306 
10:10	58.9	58.9	58.9	60	45.0	5	13	90	0.00	30.307 
10:15	59.2	59.2	59.2	60	45.3	3	7	90	0.00	30.308 
10:20	59.6	59.6	59.6	60	45.7	3	9	90	0.00	30.304 
10:25	60.2	60.2	60.2	59	45.8	3	10	90	0.00	30.300 
10:30	60.9	60.9	60.9	58	46.0	4	10	90	0.00	30.300 
10:35	61.5	61.5	61.5	56	45.7	3	7	112	0.00	30.301 
10:40	62.0	62.0	62.0	57	46.6	3	7	90	0.00	30.301 
10:45	62.4	62.4	62.4	52	44.5	4	11	90	0.00	30.303 
10:50	62.7	62.7	62.7	52	44.8	4	12	90	0.00	30.304 
10:55	62.9	62.9	62.9	53	45.5	4	12	90	0.00	30.305 
11:00	63.4	63.4	63.4	50	44.4	4	9	112	0.00	30.306 
11:05	63.4	63.4	63.4	50	44.4	5	13	90	0.00	30.305 
11:10	63.7	63.7	63.7	51	45.2	3	7	90	0.00	30.307 
11:15	64.2	64.2	64.2	49	44.6	3	7	68	0.00	30.305 
11:20	64.3	64.3	64.3	48	44.2	3	9	90	0.00	30.305 
11:25	64.5	64.5	64.5	47	43.8	3	6	90	0.00	30.300 
11:30	65.2	65.2	65.2	46	43.9	3	7	90	0.00	30.298 
11:35	65.8	65.8	65.8	47	45.0	3	9	90	0.00	30.299 
11:40	65.8	65.8	65.8	47	45.0	3	6	90	0.00	30.301 
11:45	65.6	65.6	65.6	49	45.9	2	7	112	0.00	30.299 
11:50	65.8	65.8	65.8	48	45.6	4	11	90	0.00	30.301 
11:55	66.3	66.3	66.3	47	45.5	4	10	90	0.00	30.298 
12:00	67.1	67.1	67.1	46	45.6	3	9	90	0.00	30.293 
12:05	67.8	67.8	67.8	44	45.1	3	11	90	0.00	30.294 
12:10	67.9	67.9	67.9	46	46.3	3	10	90	0.00	30.289 
12:15	67.6	67.6	67.6	44	44.9	4	10	90	0.00	30.289 
12:20	67.4	67.4	67.4	46	45.9	3	9	90	0.00	30.289 
12:25	67.6	67.6	67.6	46	46.1	3	7	90	0.00	30.288 
12:30	67.6	67.6	67.6	46	46.1	3	10	112	0.00	30.285 
12:35	67.6	67.6	67.6	47	46.6	3	7	90	0.00	30.284 
12:40	67.3	67.3	67.3	45	45.2	4	11	112	0.00	30.282 
12:45	66.4	66.4	66.4	46	45.0	4	7	90	0.00	30.278 
12:50	66.4	66.4	66.4	47	45.5	3	6	112	0.00	30.276 
12:55	66.8	66.8	66.8	49	47.0	4	12	90	0.00	30.273 
13:00	67.4	67.4	67.4	43	44.1	4	13	112	0.00	30.272 
13:05	67.6	67.6	67.6	45	45.5	3	12	90	0.00	30.270 
13:10	67.8	67.8	67.8	45	45.7	4	12	112	0.00	30.267 
13:15	67.4	67.4	67.4	44	44.7	4	10	90	0.00	30.264 
13:20	67.3	67.3	67.3	45	45.2	4	11	112	0.00	30.261 
13:25	67.3	67.3	67.3	44	44.6	3	7	90	0.00	30.259 
13:30	67.3	67.3	67.3	44	44.6	4	12	90	0.00	30.257 
13:35	67.3	67.3	67.3	45	45.2	3	7	90	0.00	30.258 
13:40	67.1	67.1	67.1	46	45.6	4	9	90	0.00	30.257 
13:45	67.1	67.1	67.1	47	46.2	3	12	90	0.00	30.258 
13:50	66.9	66.9	66.9	45	44.9	4	11	90	0.00	30.259 
13:55	66.8	66.8	66.8	44	44.2	5	11	90	0.00	30.259 
14:00	67.1	67.1	67.1	43	43.8	4	10	90	0.00	30.260 
14:05	67.3	67.3	67.3	44	44.6	4	14	90	0.00	30.262 
14:10	67.3	67.3	67.3	43	44.0	4	9	90	0.00	30.261 
14:15	67.3	67.3	67.3	43	44.0	4	11	90	0.00	30.260 
14:20	67.6	67.6	67.6	44	44.9	4	9	112	0.00	30.260 
14:25	67.6	67.6	67.6	45	45.5	4	11	112	0.00	30.260 
14:30	67.9	67.9	67.9	43	44.6	4	7	90	0.00	30.258 
14:35	68.1	68.1	68.1	45	45.9	4	9	90	0.00	30.258 
14:40	68.1	68.1	68.1	43	44.7	4	10	90	0.00	30.257 
14:45	67.9	67.9	67.9	43	44.6	5	10	90	0.00	30.257 
14:50	67.4	67.4	67.4	43	44.1	5	14	90	0.00	30.257 
14:55	67.3	67.3	67.3	45	45.2	4	11	90	0.00	30.258 
15:00	67.4	67.4	67.4	45	45.3	4	10	90	0.00	30.257 
15:05	67.3	67.3	67.3	45	45.2	3	7	112	0.00	30.256 
15:10	66.9	66.9	66.9	45	44.9	3	7	90	0.00	30.256 
15:15	66.6	66.6	66.6	46	45.2	3	11	90	0.00	30.258 
15:20	66.4	66.4	66.4	47	45.5	3	7	112	0.00	30.260 
15:25	66.3	66.3	66.3	48	46.0	3	12	90	0.00	30.260 
15:30	66.1	66.1	66.1	48	45.8	4	12	112	0.00	30.260 
15:35	66.0	66.0	66.0	47	45.2	3	10	90	0.00	30.261 
15:40	65.8	65.8	65.8	48	45.6	3	9	90	0.00	30.260 
15:45	65.5	65.5	65.5	48	45.3	4	10	90	0.00	30.260 
15:50	65.5	65.5	65.5	49	45.8	3	7	90	0.00	30.259 
15:55	65.3	65.3	65.3	50	46.2	3	6	112	0.00	30.259 
16:00	65.2	65.2	65.2	50	46.1	3	11	90	0.00	30.259 
16:05	65.0	65.0	65.0	51	46.4	3	6	90	0.00	30.258 
16:10	64.8	64.8	64.8	50	45.7	4	9	90	0.00	30.258 
16:15	64.7	64.7	64.7	51	46.1	3	6	112	0.00	30.258 
16:20	64.7	64.7	64.7	51	46.1	3	9	90	0.00	30.256 
16:25	64.7	64.7	64.7	51	46.1	4	9	90	0.00	30.252 
16:30	64.5	64.5	64.5	51	46.0	3	9	90	0.00	30.252 
16:35	64.5	64.5	64.5	52	46.5	3	12	90	0.00	30.252 
16:40	64.3	64.3	64.3	51	45.8	4	9	90	0.00	30.254 
16:45	64.2	64.2	64.2	52	46.2	4	9	90	0.00	30.252 
16:50	64.0	64.0	64.0	52	46.0	3	9	90	0.00	30.253 
16:55	63.9	63.9	63.9	53	46.4	3	10	90	0.00	30.249 
17:00	63.7	63.7	63.7	54	46.7	4	11	90	0.00	30.247 
17:05	63.7	63.7	63.7	54	46.7	2	4	90	0.00	30.249 
17:10	63.5	63.5	63.5	54	46.6	2	9	90	0.00	30.249 
17:15	63.5	63.5	63.5	55	47.0	2	7	90	0.00	30.253 
17:20	63.5	63.5	63.5	55	47.0	2	4	90	0.00	30.254 
17:25	63.7	63.7	63.7	55	47.2	2	6	90	0.00	30.254 
17:30	63.5	63.5	63.5	56	47.5	3	7	90	0.00	30.251 
17:35	63.5	63.5	63.5	56	47.5	3	6	90	0.00	30.256 
17:40	63.4	63.4	63.4	56	47.4	2	5	90	0.00	30.257 
17:45	63.2	63.2	63.2	57	47.7	2	6	90	0.00	30.256 
17:50	62.9	62.9	62.9	58	47.9	2	6	112	0.00	30.258 
17:55	62.6	62.6	62.6	58	47.6	1	3	90	0.00	30.258 
18:00	62.3	62.3	62.3	59	47.8	2	5	90	0.00	30.258 
18:05	61.8	61.8	61.8	60	47.8	2	5	90	0.00	30.255 
18:10	61.5	61.5	61.5	61	47.9	3	7	90	0.00	30.253 
18:15	61.3	61.3	61.3	62	48.2	3	7	90	0.00	30.254 
18:20	61.2	61.2	61.2	62	48.1	2	7	90	0.00	30.257 
18:25	60.9	60.9	60.9	62	47.8	2	5	90	0.00	30.258 
18:30	60.7	60.7	60.7	60	46.7	2	7	90	0.00	30.257 
18:35	60.5	60.5	60.5	64	48.3	4	7	90	0.00	30.258 
18:40	60.4	60.4	60.4	65	48.6	2	7	90	0.00	30.261 
18:45	59.9	59.9	59.9	65	48.1	2	4	90	0.00	30.261 
18:50	59.8	59.8	59.8	66	48.4	3	7	90	0.00	30.261 
18:55	59.5	59.5	59.5	66	48.1	2	6	90	0.00	30.262 
19:00	59.3	59.3	59.3	67	48.3	2	5	90	0.00	30.265 
19:05	59.2	59.2	59.2	67	48.2	3	7	90	0.00	30.268 
19:10	59.0	59.0	59.0	67	48.1	2	5	90	0.00	30.271 
19:15	58.9	58.9	58.9	67	48.0	2	5	90	0.00	30.273 
19:20	58.6	58.6	58.6	68	48.1	2	5	112	0.00	30.275 
19:25	58.4	58.4	58.4	69	48.3	1	6	90	0.00	30.275 
19:30	58.1	58.1	58.1	68	47.6	3	6	90	0.00	30.277 
19:35	58.0	58.0	58.0	69	47.9	2	4	112	0.00	30.278 
19:40	57.8	57.8	57.8	69	47.7	2	7	112	0.00	30.279 
19:45	57.5	57.5	57.5	69	47.4	2	6	90	0.00	30.279 
19:50	57.3	57.3	57.3	69	47.2	2	5	90	0.00	30.280 
19:55	57.2	57.2	57.2	69	47.1	3	5	90	0.00	30.280 
20:00	57.0	57.0	57.0	69	46.9	3	6	90	0.00	30.279 
20:05	56.9	56.9	56.9	69	46.8	2	6	112	0.00	30.279 
20:10	56.6	56.6	56.6	69	46.5	2	5	90	0.00	30.282 
20:15	56.5	56.5	56.5	70	46.8	2	7	112	0.00	30.280 
20:20	56.2	56.2	56.2	70	46.5	2	6	90	0.00	30.281 
20:25	56.0	56.0	56.0	69	46.0	2	7	90	0.00	30.282 
20:30	56.0	56.0	56.0	69	46.0	2	5	90	0.00	30.286 
20:35	55.9	55.9	55.9	69	45.9	3	7	90	0.00	30.290 
20:40	55.7	55.7	55.7	70	46.1	2	6	90	0.00	30.291 
20:45	55.6	55.6	55.6	70	46.0	2	5	112	0.00	30.293 
20:50	55.4	55.4	55.4	70	45.8	2	6	90	0.00	30.291 
20:55	55.3	55.3	55.3	70	45.7	2	9	90	0.00	30.292 
21:00	55.3	55.3	55.3	70	45.7	3	7	90	0.00	30.290 
21:05	55.1	55.1	55.1	70	45.5	2	5	90	0.00	30.285 
21:10	55.1	55.1	55.1	70	45.5	3	6	90	0.00	30.282 
21:15	55.0	55.0	55.0	70	45.4	2	5	90	0.00	30.284 
21:20	55.0	55.0	55.0	70	45.4	3	7	90	0.00	30.290 
21:25	54.8	54.8	54.8	70	45.2	3	6	90	0.00	30.293 
21:30	54.7	54.7	54.7	71	45.5	3	7	90	0.00	30.292 
21:35	54.5	54.5	54.5	71	45.3	2	6	90	0.00	30.292 
21:40	54.4	54.4	54.4	71	45.2	3	7	90	0.00	30.288 
21:45	54.2	54.2	54.2	72	45.4	3	6	90	0.00	30.288 
21:50	54.1	54.1	54.1	72	45.3	2	6	90	0.00	30.285 
21:55	53.9	53.9	53.9	72	45.1	3	5	90	0.00	30.288 
22:00	53.8	53.8	53.8	73	45.3	2	5	90	0.00	30.292 
22:05	53.6	53.6	53.6	73	45.2	3	9	90	0.00	30.289 
22:10	53.6	53.6	53.6	73	45.2	2	6	90	0.00	30.290 
22:15	53.5	53.5	53.5	73	45.1	3	9	90	0.00	30.290 
22:20	53.3	53.3	53.3	73	44.9	2	7	90	0.00	30.290 
22:25	53.3	53.3	53.3	74	45.2	2	6	90	0.00	30.291 
22:30	53.2	53.2	53.2	74	45.1	2	6	90	0.00	30.291 
22:35	53.1	53.1	53.1	74	45.0	2	5	90	0.00	30.291 
22:40	52.9	52.9	52.9	74	44.8	2	7	90	0.00	30.291 
22:45	52.9	52.9	52.9	74	44.8	2	6	90	0.00	30.290 
22:50	52.8	52.8	52.8	74	44.7	3	8	90	0.00	30.290 
22:55	52.8	52.8	52.8	74	44.7	2	6	112	0.00	30.290 
23:00	52.6	52.6	52.6	75	44.9	3	6	90	0.00	30.290 
23:05	52.6	52.6	52.6	74	44.6	3	7	90	0.00	30.286 
23:10	52.6	52.6	52.6	74	44.6	2	5	90	0.00	30.287 
23:15	52.5	52.5	52.5	74	44.5	2	4	90	0.00	30.287 
23:20	52.3	52.3	52.3	74	44.3	2	6	90	0.00	30.287 
23:25	52.3	52.3	52.3	74	44.3	2	5	90	0.00	30.287 
23:30	52.2	52.2	52.2	73	43.8	2	5	90	0.00	30.287 
23:35	52.2	52.2	52.2	73	43.8	3	6	90	0.00	30.284 
23:40	52.2	52.2	52.2	72	43.4	3	5	90	0.00	30.283 
23:45	52.2	52.2	52.2	72	43.4	2	4	90	0.00	30.282 
23:50	52.2	52.2	52.2	72	43.4	2	6	90	0.00	30.280 
23:55	52.0	52.0	52.0	71	42.9	2	5	90	0.00	30.277 

CoCoRaHS
IN-AL-39
A2 Web Hosting
Creative Commons License
GoDaddy
Look for:

loaded 2017-12-12 01:59:12 • last modified 2010-11-18 10:43:29
Privacy PolicyDisclaimer
• wx.awcolley.com is powered by PmWiki v.2002016 •
• all content (unless otherwise noted) © 2017 A W Colley